createdAt,value
2023-12-13T05:42:46.346Z,99944.89
2023-12-13T05:45:13.038Z,99947.77
2023-12-13T05:47:39.496Z,99952.79
2023-12-13T05:50:06.498Z,99958.92
2023-12-13T05:52:33.192Z,99957.25
2023-12-13T05:54:59.899Z,99953.77
2023-12-13T05:57:26.530Z,99952.08
2023-12-13T05:59:53.207Z,99952.88
2023-12-13T06:02:19.880Z,99957.42
2023-12-13T06:04:48.523Z,99961.22
2023-12-13T06:07:17.075Z,99958.95
2023-12-13T06:09:43.768Z,99956.42
2023-12-13T06:12:10.483Z,99947.64
2023-12-13T06:14:37.226Z,99951.66
2023-12-13T06:17:04.769Z,99956.00
2023-12-13T06:19:33.585Z,99963.66
2023-12-13T06:22:00.160Z,99963.31
2023-12-13T06:24:29.191Z,99968.72
2023-12-13T06:26:57.002Z,99967.11
2023-12-13T06:29:35.550Z,99971.27
2023-12-13T06:32:33.685Z,99972.40
2023-12-13T06:35:49.180Z,99972.52
2023-12-13T06:47:11.782Z,99996.31
2023-12-13T06:50:52.696Z,100005.00
2023-12-13T06:53:59.577Z,100008.59
2023-12-13T06:56:41.016Z,100011.55
2023-12-13T06:59:12.702Z,100005.90
2023-12-13T07:01:43.493Z,100007.23
2023-12-13T07:04:12.088Z,100004.39
2023-12-13T07:06:48.897Z,99998.48
2023-12-13T07:09:24.104Z,99995.54
2023-12-13T07:11:54.705Z,99995.97
2023-12-13T07:14:21.644Z,99996.27
2023-12-13T07:16:48.421Z,99993.98
2023-12-13T07:19:15.318Z,99995.73
2023-12-13T07:21:42.339Z,99991.02
2023-12-13T07:24:09.730Z,99990.84
2023-12-13T07:26:37.318Z,99989.73
2023-12-13T07:29:03.968Z,99999.52
2023-12-13T07:31:30.782Z,100002.45
2023-12-13T07:34:02.011Z,100005.56
2023-12-13T07:36:30.720Z,100007.58
2023-12-13T07:38:58.615Z,100007.72
2023-12-13T07:41:26.334Z,100004.73
2023-12-13T07:43:52.920Z,100006.50
2023-12-13T07:46:19.425Z,100008.09
2023-12-13T07:48:46.398Z,100009.30
2023-12-13T07:51:13.180Z,100017.66
2023-12-13T07:53:40.142Z,100031.48
2023-12-13T07:56:07.892Z,100038.77
2023-12-13T07:58:35.318Z,100040.63
2023-12-13T08:01:02.785Z,100035.70
2023-12-13T08:03:30.671Z,100037.20
2023-12-13T08:05:57.918Z,100042.60
2023-12-13T08:08:26.609Z,100041.69
2023-12-13T08:10:54.521Z,100044.60
2023-12-13T08:13:23.232Z,100047.58
2023-12-13T08:16:06.460Z,100052.23
2023-12-13T08:18:43.894Z,100052.83
2023-12-13T08:21:11.054Z,100049.39
2023-12-13T08:23:38.546Z,100048.94
2023-12-13T08:26:05.299Z,100042.05
2023-12-13T08:28:31.970Z,100040.66
2023-12-13T08:31:09.010Z,100031.81
2023-12-13T08:33:49.081Z,100020.57
2023-12-13T08:36:15.972Z,100013.86
2023-12-13T08:38:42.835Z,100014.39
2023-12-13T08:41:10.223Z,100003.72
2023-12-13T08:43:42.738Z,99996.23
2023-12-13T08:46:09.497Z,99996.84
2023-12-13T08:48:37.232Z,99996.70
2023-12-13T08:51:04.059Z,99991.39
2023-12-13T08:53:30.970Z,99987.16
2023-12-13T08:55:58.934Z,99983.37
2023-12-13T08:58:28.895Z,99978.48
2023-12-13T09:00:56.618Z,99977.80
2023-12-13T09:03:24.320Z,99985.44
2023-12-13T09:05:53.669Z,99994.70
2023-12-13T09:08:20.424Z,99994.09
2023-12-13T09:10:48.385Z,99992.60
2023-12-13T09:13:27.665Z,99984.70
2023-12-13T09:19:26.585Z,99968.94
2023-12-13T09:22:24.324Z,99961.11
2023-12-13T09:26:19.696Z,99949.09
2023-12-13T09:28:59.427Z,99940.99
2023-12-13T09:31:38.232Z,99938.65
2023-12-13T09:34:11.155Z,99932.91
2023-12-13T09:36:44.252Z,99930.99
2023-12-13T09:39:17.852Z,99930.95
2023-12-13T09:41:53.984Z,99932.95
2023-12-13T09:44:22.600Z,99935.10
2023-12-13T09:46:50.814Z,99938.80
2023-12-13T09:49:25.443Z,99935.73
2023-12-13T09:52:00.048Z,99933.80
2023-12-13T09:54:26.527Z,99934.41
2023-12-13T09:56:53.168Z,99934.34
2023-12-13T09:59:23.112Z,99932.55
2023-12-13T10:01:53.868Z,99936.22
2023-12-13T10:04:27.045Z,99940.00
2023-12-13T10:06:54.293Z,99941.41
2023-12-13T10:09:21.491Z,99939.84
2023-12-13T10:11:48.115Z,99941.07
2023-12-13T10:14:14.786Z,99946.89
2023-12-13T10:16:41.536Z,99945.40
2023-12-13T10:19:08.360Z,99955.11
2023-12-13T10:21:35.441Z,99955.79
2023-12-13T10:24:02.477Z,99953.34
2023-12-13T10:26:34.644Z,99951.39
2023-12-13T10:29:02.060Z,99951.90
2023-12-13T10:31:28.701Z,99949.02
2023-12-13T10:33:56.102Z,99944.77
2023-12-13T10:36:23.472Z,99935.58
2023-12-13T10:38:52.488Z,99938.84
2023-12-13T10:41:21.146Z,99943.52
2023-12-13T10:43:47.990Z,99940.80
2023-12-13T10:46:15.013Z,99940.48
2023-12-13T10:48:42.167Z,99939.00
2023-12-13T10:51:08.962Z,99936.39
2023-12-13T10:53:40.239Z,99938.17
2023-12-13T10:56:13.208Z,99940.70
2023-12-13T10:58:39.810Z,99938.58
2023-12-13T11:01:08.232Z,99941.66
2023-12-13T11:03:39.855Z,99951.34
2023-12-13T11:06:07.545Z,99956.08
2023-12-13T11:08:40.388Z,99951.30
2023-12-13T11:11:07.816Z,99948.10
2023-12-13T11:13:53.348Z,99944.33
2023-12-13T11:16:20.687Z,99936.48
2023-12-13T11:19:12.476Z,99937.85
2023-12-13T11:21:58.053Z,99935.83
2023-12-13T11:24:33.717Z,99935.59
2023-12-13T11:27:00.994Z,99932.48
2023-12-13T11:29:40.630Z,99932.34
2023-12-13T11:32:25.397Z,99934.44
2023-12-13T11:34:52.686Z,99933.15
2023-12-13T11:37:20.650Z,99936.85
2023-12-13T11:39:47.454Z,99930.95
2023-12-13T11:42:15.700Z,99928.80
2023-12-13T11:44:43.321Z,99929.89
2023-12-13T11:47:11.089Z,99922.55
2023-12-13T11:49:38.062Z,99912.80
2023-12-13T11:52:05.341Z,99910.85
2023-12-13T11:54:33.481Z,99911.95
2023-12-13T11:57:00.110Z,99911.62
2023-12-13T11:59:26.774Z,99919.95
2023-12-13T12:01:53.516Z,99929.19
2023-12-13T12:04:20.382Z,99926.30
2023-12-13T12:06:50.108Z,99919.79
2023-12-13T12:09:22.061Z,99918.96
2023-12-13T12:11:52.595Z,99916.42
2023-12-13T12:14:19.536Z,99908.48
2023-12-13T12:16:46.844Z,99912.06
2023-12-13T12:19:16.129Z,99908.81
2023-12-13T12:21:43.093Z,99902.05
2023-12-13T12:24:48.120Z,99897.54
2023-12-13T12:27:25.420Z,99904.87
2023-12-13T12:29:52.841Z,99905.01
2023-12-13T12:32:20.623Z,99908.10
2023-12-13T12:34:48.754Z,99910.17
2023-12-13T12:37:18.628Z,99907.41
2023-12-13T12:39:45.333Z,99910.00
2023-12-13T12:42:13.034Z,99911.00
2023-12-13T12:44:39.561Z,99910.56
2023-12-13T12:47:06.402Z,99908.74
2023-12-13T12:49:33.709Z,99910.39
2023-12-13T12:52:01.002Z,99912.41
2023-12-13T12:54:27.981Z,99918.55
2023-12-13T12:56:55.417Z,99917.29
2023-12-13T12:59:22.862Z,99911.77
2023-12-13T13:01:49.785Z,99912.27
2023-12-13T13:04:16.602Z,99909.37
2023-12-13T13:06:44.812Z,99909.89
2023-12-13T13:09:11.524Z,99906.98
2023-12-13T13:11:38.371Z,99905.49
2023-12-13T13:14:07.817Z,99907.67
2023-12-13T13:16:36.248Z,99916.02
2023-12-13T13:19:04.339Z,99913.59
2023-12-13T13:21:31.328Z,99922.02
2023-12-13T13:23:57.913Z,99917.80
2023-12-13T13:26:25.571Z,99914.56
2023-12-13T13:28:54.309Z,99908.48
2023-12-13T13:31:22.177Z,99903.46
2023-12-13T13:33:48.963Z,99907.20
2023-12-13T13:36:15.687Z,99906.59
2023-12-13T13:38:42.405Z,99905.52
2023-12-13T13:41:09.289Z,99902.56
2023-12-13T13:43:36.224Z,99905.73
2023-12-13T13:46:03.120Z,99909.24
2023-12-13T13:48:31.169Z,99911.71
2023-12-13T13:50:58.190Z,99914.04
2023-12-13T13:53:25.967Z,99920.38
2023-12-13T13:55:53.272Z,99925.17
2023-12-13T13:58:19.978Z,99923.54
2023-12-13T14:00:46.857Z,99927.45
2023-12-13T14:03:14.633Z,99928.52
2023-12-13T14:05:41.113Z,99927.63
2023-12-13T14:08:10.011Z,99929.54
2023-12-13T14:10:36.814Z,99927.14
2023-12-13T14:13:03.433Z,99928.00
2023-12-13T14:15:30.194Z,99928.16
2023-12-13T14:17:57.041Z,99933.15
2023-12-13T14:20:23.898Z,99936.05
2023-12-13T14:22:50.804Z,99928.51
2023-12-13T14:25:17.627Z,99930.09
2023-12-13T14:27:44.277Z,99933.02
2023-12-13T14:30:11.196Z,99934.66
2023-12-13T14:32:37.997Z,99930.99
2023-12-13T14:35:07.705Z,99932.02
2023-12-13T14:37:39.430Z,99935.38
2023-12-13T14:40:06.624Z,99932.30
2023-12-13T14:42:34.210Z,99937.64
2023-12-13T14:45:01.373Z,99937.81
2023-12-13T14:47:28.376Z,99941.30
2023-12-13T14:49:55.059Z,99944.55
2023-12-13T14:52:21.891Z,99948.98
2023-12-13T14:54:48.699Z,99945.88
2023-12-13T14:57:15.589Z,99946.73
2023-12-13T14:59:42.282Z,99951.33
2023-12-13T15:02:09.004Z,99954.15
2023-12-13T15:04:37.485Z,99955.95
2023-12-13T15:07:07.499Z,99958.31
2023-12-13T15:09:35.231Z,99956.59
2023-12-13T15:12:01.875Z,99958.25
2023-12-13T15:14:30.493Z,99965.05
2023-12-13T15:16:57.659Z,99967.27
2023-12-13T15:19:24.641Z,99965.00
2023-12-13T15:21:51.322Z,99969.60
